Cooktown, Kentucky
Current Conditions -  °F | °C
As of 6:15 PM on Monday 20 Oct 2014 (Local Time) from KGLW Reporting Station
Clear Clear  
Wind Chill: 60°   Ceiling: Unl
Heat Index: 60°   Visibility: 10mi
Dew Point: 49°   Wind: 6mph
Humidity: 68%   Direction: 210°SSW
Pressure: 29.95"   Gusts: NA
Location:  36.8194°N, 85.9936°W
Report Text: KGLW 202315Z AUTO 21005KT 10SM CLR 16/10 A2995 RMK AO2 T01550097
Loading
Personal Weather Stations






























Interactive Weather Map
Tropical Storm Tracking
New forecast layout! Learn more

10-Day Weather Forecast

Advertisements
Track Severe Weather on mobile